Terminal Aerodrome Forecast
Issued by NWS Sterling, VA

Current Version | Previous Version | Graphics & Text | Print | Product List | Glossary On
Versions: 1 2 3 4 5 6 7 8 9 10 11 12 13 14 15 16 17 18 19 20 21 22 23 24 25 26 27 28 29 30
879
FTUS41 KLWX 281735
TAFIAD
TAF
KIAD 281735Z 2818/2924 25006KT P6SM -SHRA VCTS SCT035CB BKN045
     FM290000 32005KT P6SM SCT025 OVC040
     FM290600 35008KT P6SM BKN010 OVC025
     FM291200 35008KT P6SM SCT025 BKN050
     FM291500 35011KT P6SM FEW040 SCT250
     FM292300 36007KT P6SM FEW060 SCT250=

USA.gov is the U.S. government's official web portal to all federal, state and local government web resources and services.